Time,TemperatureF,DewpointF,PressureIn,WindDirection,WindDirectionDegrees,WindSpeedMPH,WindSpeedGustMPH,Humidity,HourlyPrecipIn,Conditions,Clouds,dailyrainin,SoftwareType,DateUTC
2013-04-26 00:09:00,47.8,37.0,30.21,SW,225,0.0,1.0,66,0.00,,,0.00,weatherlink.com 1.10,2013-04-26 04:09:00,
2013-04-26 00:24:00,47.6,36.0,30.21,SW,225,0.0,0.0,64,0.00,,,0.00,weatherlink.com 1.10,2013-04-26 04:24:00,
2013-04-26 00:39:00,47.5,37.0,30.21,SW,225,0.0,0.0,66,0.00,,,0.00,weatherlink.com 1.10,2013-04-26 04:39:00,
2013-04-26 00:54:00,46.6,36.0,30.21,SW,225,0.0,0.0,67,0.00,,,0.00,weatherlink.com 1.10,2013-04-26 04:54:00,
2013-04-26 01:09:00,45.7,36.0,30.21,SW,225,0.0,0.0,68,0.00,,,0.00,weatherlink.com 1.10,2013-04-26 05:09:00,
2013-04-26 01:24:00,45.0,35.0,30.22,SW,225,0.0,1.0,68,0.00,,,0.00,weatherlink.com 1.10,2013-04-26 05:24:00,
2013-04-26 01:39:00,44.7,35.0,30.22,SW,225,0.0,0.0,69,0.00,,,0.00,weatherlink.com 1.10,2013-04-26 05:39:00,
2013-04-26 01:54:00,44.2,35.0,30.22,SW,225,0.0,1.0,70,0.00,,,0.00,weatherlink.com 1.10,2013-04-26 05:54:00,
2013-04-26 02:09:00,43.8,35.0,30.22,SW,225,0.0,0.0,72,0.00,,,0.00,weatherlink.com 1.10,2013-04-26 06:09:00,
2013-04-26 02:24:00,43.6,34.0,30.22,SW,225,0.0,1.0,69,0.00,,,0.00,weatherlink.com 1.10,2013-04-26 06:24:00,
2013-04-26 02:39:00,43.9,34.0,30.22,SW,225,0.0,1.0,68,0.00,,,0.00,weatherlink.com 1.10,2013-04-26 06:39:00,
2013-04-26 02:54:00,43.8,33.0,30.22,SW,225,0.0,1.0,67,0.00,,,0.00,weatherlink.com 1.10,2013-04-26 06:54:00,
2013-04-26 03:09:00,43.6,33.0,30.22,SW,225,0.0,1.0,67,0.00,,,0.00,weatherlink.com 1.10,2013-04-26 07:09:00,
2013-04-26 03:24:00,44.1,33.0,30.22,West,274,0.0,3.0,64,0.00,,,0.00,weatherlink.com 1.10,2013-04-26 07:24:00,
2013-04-26 03:39:00,45.0,33.0,30.23,West,274,0.0,1.0,62,0.00,,,0.00,weatherlink.com 1.10,2013-04-26 07:39:00,
2013-04-26 03:54:00,45.1,32.0,30.23,West,274,0.0,1.0,61,0.00,,,0.00,weatherlink.com 1.10,2013-04-26 07:54:00,
2013-04-26 04:09:00,44.6,33.0,30.24,West,274,0.0,0.0,64,0.00,,,0.00,weatherlink.com 1.10,2013-04-26 08:09:00,
2013-04-26 04:24:00,44.0,33.0,30.25,West,274,0.0,0.0,66,0.00,,,0.00,weatherlink.com 1.10,2013-04-26 08:24:00,
2013-04-26 04:39:00,43.4,33.0,30.25,West,274,0.0,0.0,67,0.00,,,0.00,weatherlink.com 1.10,2013-04-26 08:39:00,
2013-04-26 04:54:00,42.9,33.0,30.25,West,274,0.0,1.0,69,0.00,,,0.00,weatherlink.com 1.10,2013-04-26 08:54:00,
2013-04-26 05:09:00,42.7,33.0,30.26,West,274,0.0,2.0,69,0.00,,,0.00,weatherlink.com 1.10,2013-04-26 09:09:00,
2013-04-26 05:24:00,43.0,33.0,30.26,West,274,0.0,1.0,69,0.00,,,0.00,weatherlink.com 1.10,2013-04-26 09:24:00,
2013-04-26 05:39:00,42.8,33.0,30.27,West,274,0.0,0.0,69,0.00,,,0.00,weatherlink.com 1.10,2013-04-26 09:39:00,
2013-04-26 05:54:00,42.3,34.0,30.28,West,274,0.0,1.0,71,0.00,,,0.00,weatherlink.com 1.10,2013-04-26 09:54:00,
2013-04-26 06:09:00,42.1,33.0,30.28,West,274,0.0,0.0,71,0.00,,,0.00,weatherlink.com 1.10,2013-04-26 10:09:00,
2013-04-26 06:24:00,42.1,33.0,30.29,West,274,0.0,0.0,71,0.00,,,0.00,weatherlink.com 1.10,2013-04-26 10:24:00,
2013-04-26 06:39:00,42.2,34.0,30.29,West,274,0.0,0.0,72,0.00,,,0.00,weatherlink.com 1.10,2013-04-26 10:39:00,
2013-04-26 06:54:00,42.9,34.0,30.30,West,274,0.0,1.0,71,0.00,,,0.00,weatherlink.com 1.10,2013-04-26 10:54:00,
2013-04-26 07:09:00,44.8,35.0,30.31,West,274,0.0,1.0,68,0.00,,,0.00,weatherlink.com 1.10,2013-04-26 11:09:00,
2013-04-26 07:24:00,47.9,34.0,30.31,West,281,0.0,3.0,60,0.00,,,0.00,weatherlink.com 1.10,2013-04-26 11:24:00,
2013-04-26 07:40:00,50.9,35.0,30.32,WNW,293,1.0,5.0,56,0.00,,,0.00,weatherlink.com 1.10,2013-04-26 11:40:00,
2013-04-26 07:55:00,52.2,35.0,30.32,NNW,343,0.0,6.0,53,0.00,,,0.00,weatherlink.com 1.10,2013-04-26 11:55:00,
2013-04-26 08:10:00,52.9,36.0,30.33,NNW,333,6.0,8.0,53,0.00,,,0.00,weatherlink.com 1.10,2013-04-26 12:10:00,
2013-04-26 08:25:00,53.9,37.0,30.33,West,274,4.0,5.0,53,0.00,,,0.00,weatherlink.com 1.10,2013-04-26 12:25:00,
2013-04-26 08:40:00,55.5,37.0,30.33,NNW,338,2.0,6.0,51,0.00,,,0.00,weatherlink.com 1.10,2013-04-26 12:40:00,
2013-04-26 08:55:00,56.0,37.0,30.34,West,265,2.0,8.0,50,0.00,,,0.00,weatherlink.com 1.10,2013-04-26 12:55:00,
2013-04-26 09:10:00,56.6,38.0,30.34,NNE,25,1.0,6.0,50,0.00,,,0.00,weatherlink.com 1.10,2013-04-26 13:10:00,
2013-04-26 09:25:00,58.4,39.0,30.34,West,265,0.0,6.0,49,0.00,,,0.00,weatherlink.com 1.10,2013-04-26 13:25:00,
2013-04-26 09:40:00,59.2,38.0,30.34,NNW,346,2.0,5.0,46,0.00,,,0.00,weatherlink.com 1.10,2013-04-26 13:40:00,
2013-04-26 09:55:00,60.0,38.0,30.34,NNW,336,2.0,4.0,45,0.00,,,0.00,weatherlink.com 1.10,2013-04-26 13:55:00,
2013-04-26 10:25:00,61.3,37.0,30.34,WNW,285,3.0,7.0,41,0.00,,,0.00,weatherlink.com 1.10,2013-04-26 14:25:00,
2013-04-26 10:40:00,61.6,37.0,30.34,NNW,342,0.0,4.0,41,0.00,,,0.00,weatherlink.com 1.10,2013-04-26 14:40:00,
2013-04-26 10:55:00,62.3,36.0,30.34,West,279,2.0,8.0,38,0.00,,,0.00,weatherlink.com 1.10,2013-04-26 14:55:00,
2013-04-26 11:10:00,62.3,36.0,30.33,WNW,292,1.0,8.0,37,0.00,,,0.00,weatherlink.com 1.10,2013-04-26 15:10:00,
2013-04-26 11:25:00,62.8,35.0,30.33,WSW,238,2.0,7.0,36,0.00,,,0.00,weatherlink.com 1.10,2013-04-26 15:25:00,
2013-04-26 11:40:00,63.3,38.0,30.33,NW,325,0.0,5.0,39,0.00,,,0.00,weatherlink.com 1.10,2013-04-26 15:40:00,
2013-04-26 11:55:00,63.5,35.0,30.32,NW,305,4.0,10.0,35,0.00,,,0.00,weatherlink.com 1.10,2013-04-26 15:55:00,
2013-04-26 12:10:00,62.9,32.0,30.32,WNW,300,1.0,7.0,32,0.00,,,0.00,weatherlink.com 1.10,2013-04-26 16:10:00,
2013-04-26 12:25:00,63.4,36.0,30.32,SW,214,1.0,8.0,36,0.00,,,0.00,weatherlink.com 1.10,2013-04-26 16:25:00,
2013-04-26 12:40:00,63.0,34.0,30.32,NW,323,2.0,9.0,34,0.00,,,0.00,weatherlink.com 1.10,2013-04-26 16:40:00,
2013-04-26 12:55:00,62.7,33.0,30.31,North,355,3.0,9.0,33,0.00,,,0.00,weatherlink.com 1.10,2013-04-26 16:55:00,
2013-04-26 13:10:00,63.1,33.0,30.31,NW,306,1.0,5.0,33,0.00,,,0.00,weatherlink.com 1.10,2013-04-26 17:10:00,
2013-04-26 13:25:00,63.1,31.0,30.30,WSW,250,1.0,8.0,30,0.00,,,0.00,weatherlink.com 1.10,2013-04-26 17:25:00,
2013-04-26 13:40:00,62.9,31.0,30.30,NNE,14,4.0,6.0,30,0.00,,,0.00,weatherlink.com 1.10,2013-04-26 17:40:00,
2013-04-26 13:55:00,62.8,32.0,30.30,West,260,4.0,6.0,31,0.00,,,0.00,weatherlink.com 1.10,2013-04-26 17:55:00,
2013-04-26 14:10:00,63.7,31.0,30.29,SW,230,4.0,11.0,29,0.00,,,0.00,weatherlink.com 1.10,2013-04-26 18:10:00,
2013-04-26 14:25:00,64.1,30.0,30.29,WSW,250,1.0,8.0,28,0.00,,,0.00,weatherlink.com 1.10,2013-04-26 18:25:00,
2013-04-26 14:41:00,64.4,29.0,30.29,NNW,342,1.0,6.0,26,0.00,,,0.00,weatherlink.com 1.10,2013-04-26 18:41:00,
2013-04-26 14:56:00,65.0,26.0,30.29,NNW,335,1.0,6.0,23,0.00,,,0.00,weatherlink.com 1.10,2013-04-26 18:56:00,
2013-04-26 15:11:00,65.3,26.0,30.29,West,273,1.0,10.0,23,0.00,,,0.00,weatherlink.com 1.10,2013-04-26 19:11:00,
2013-04-26 15:26:00,65.7,27.0,30.29,ENE,59,0.0,8.0,23,0.00,,,0.00,weatherlink.com 1.10,2013-04-26 19:26:00,
2013-04-26 15:41:00,65.7,23.0,30.29,WNW,298,1.0,7.0,20,0.00,,,0.00,weatherlink.com 1.10,2013-04-26 19:41:00,
2013-04-26 15:56:00,65.7,25.0,30.28,West,260,1.0,7.0,21,0.00,,,0.00,weatherlink.com 1.10,2013-04-26 19:56:00,
2013-04-26 16:11:00,65.3,24.0,30.29,NE,45,0.0,6.0,21,0.00,,,0.00,weatherlink.com 1.10,2013-04-26 20:11:00,
2013-04-26 16:26:00,65.8,27.0,30.28,WNW,292,3.0,4.0,23,0.00,,,0.00,weatherlink.com 1.10,2013-04-26 20:26:00,
2013-04-26 16:41:00,66.1,25.0,30.28,NW,317,3.0,7.0,21,0.00,,,0.00,weatherlink.com 1.10,2013-04-26 20:41:00,
2013-04-26 16:56:00,66.0,27.0,30.28,ESE,109,2.0,5.0,23,0.00,,,0.00,weatherlink.com 1.10,2013-04-26 20:56:00,
2013-04-26 17:11:00,66.3,26.0,30.28,North,355,1.0,4.0,22,0.00,,,0.00,weatherlink.com 1.10,2013-04-26 21:11:00,
2013-04-26 17:26:00,66.9,27.0,30.28,North,355,0.0,3.0,22,0.00,,,0.00,weatherlink.com 1.10,2013-04-26 21:26:00,
2013-04-26 17:41:00,66.3,26.0,30.28,West,259,0.0,2.0,22,0.00,,,0.00,weatherlink.com 1.10,2013-04-26 21:41:00,
2013-04-26 17:56:00,66.4,28.0,30.28,North,11,3.0,6.0,24,0.00,,,0.00,weatherlink.com 1.10,2013-04-26 21:56:00,
2013-04-26 18:11:00,66.3,26.0,30.28,WNW,296,2.0,5.0,22,0.00,,,0.00,weatherlink.com 1.10,2013-04-26 22:11:00,
2013-04-26 18:26:00,65.8,26.0,30.29,NW,310,0.0,2.0,22,0.00,,,0.00,weatherlink.com 1.10,2013-04-26 22:26:00,
2013-04-26 18:41:00,65.2,27.0,30.28,WSW,252,1.0,4.0,24,0.00,,,0.00,weatherlink.com 1.10,2013-04-26 22:41:00,
2013-04-26 18:56:00,64.7,27.0,30.28,NW,313,0.0,2.0,24,0.00,,,0.00,weatherlink.com 1.10,2013-04-26 22:56:00,
2013-04-26 19:11:00,64.1,26.0,30.28,WNW,292,0.0,5.0,24,0.00,,,0.00,weatherlink.com 1.10,2013-04-26 23:11:00,
2013-04-26 19:26:00,63.4,28.0,30.29,WNW,292,0.0,3.0,26,0.00,,,0.00,weatherlink.com 1.10,2013-04-26 23:26:00,
2013-04-26 19:41:00,62.6,31.0,30.28,WNW,292,0.0,0.0,30,0.00,,,0.00,weatherlink.com 1.10,2013-04-26 23:41:00,
2013-04-26 20:11:00,59.3,31.0,30.29,WNW,292,0.0,0.0,34,0.00,,,0.00,weatherlink.com 1.10,2013-04-27 00:11:00,
2013-04-26 20:26:00,57.7,31.0,30.30,WNW,292,0.0,0.0,36,0.00,,,0.00,weatherlink.com 1.10,2013-04-27 00:26:00,
2013-04-26 20:41:00,56.4,32.0,30.31,WNW,292,0.0,0.0,39,0.00,,,0.00,weatherlink.com 1.10,2013-04-27 00:41:00,
2013-04-26 20:56:00,55.2,31.0,30.32,WNW,292,0.0,0.0,40,0.00,,,0.00,weatherlink.com 1.10,2013-04-27 00:56:00,
2013-04-26 21:11:00,54.1,32.0,30.32,WNW,292,0.0,0.0,43,0.00,,,0.00,weatherlink.com 1.10,2013-04-27 01:11:00,
2013-04-26 21:26:00,53.2,32.0,30.32,WNW,292,0.0,0.0,45,0.00,,,0.00,weatherlink.com 1.10,2013-04-27 01:26:00,
2013-04-26 21:41:00,52.4,32.0,30.32,WNW,292,0.0,0.0,47,0.00,,,0.00,weatherlink.com 1.10,2013-04-27 01:41:00,
2013-04-26 21:56:00,51.7,32.0,30.33,WNW,292,0.0,0.0,48,0.00,,,0.00,weatherlink.com 1.10,2013-04-27 01:56:00,
2013-04-26 22:11:00,51.0,32.0,30.33,WNW,292,0.0,0.0,49,0.00,,,0.00,weatherlink.com 1.10,2013-04-27 02:11:00,
2013-04-26 22:26:00,50.4,33.0,30.33,WNW,292,0.0,0.0,51,0.00,,,0.00,weatherlink.com 1.10,2013-04-27 02:26:00,
2013-04-26 22:41:00,50.1,33.0,30.34,WNW,292,0.0,1.0,52,0.00,,,0.00,weatherlink.com 1.10,2013-04-27 02:41:00,
2013-04-26 22:56:00,49.9,33.0,30.34,WNW,292,0.0,0.0,52,0.00,,,0.00,weatherlink.com 1.10,2013-04-27 02:56:00,
2013-04-26 23:11:00,49.6,32.0,30.34,WNW,292,0.0,0.0,51,0.00,,,0.00,weatherlink.com 1.10,2013-04-27 03:11:00,
2013-04-26 23:26:00,49.8,30.0,30.34,WNW,292,0.0,0.0,47,0.00,,,0.00,weatherlink.com 1.10,2013-04-27 03:26:00,
2013-04-26 23:41:00,49.6,32.0,30.34,WNW,292,0.0,0.0,51,0.00,,,0.00,weatherlink.com 1.10,2013-04-27 03:41:00,
2013-04-26 23:56:00,48.9,33.0,30.35,WNW,292,0.0,0.0,54,0.00,,,0.00,weatherlink.com 1.10,2013-04-27 03:56:00,